Time;durP1;ratioP1;P1;durP2;ratioP2;P2;SDS_P1;SDS_P2;PMS_P1;PMS_P2;Temp;Humidity;BMP_temperature;BMP_pressure;BME280_temperature;BME280_humidity;BME280_pressure;Samples;Min_cycle;Max_cycle;Signal;HPM_P1;HPM_P2
2023/05/19 00:02:26;;;;;;;21.63;12.57;;;;;;;11.51;90.08;100573.66;4844659;28;20460;-56
2023/05/19 00:05:01;;;;;;;17.88;12.18;;;;;;;11.58;90.47;100584.88;4837715;28;20231;-57
2023/05/19 00:07:32;;;;;;;19.35;12.43;;;;;;;11.31;89.58;100533.88;4852395;28;20064;-57
2023/05/19 00:10:04;;;;;;;18.27;13.07;;;;;;;11.76;89.79;100581.13;4839101;28;20055;-58
2023/05/19 00:12:38;;;;;;;17.95;12.07;;;;;;;11.79;89.57;100581.09;4856009;28;20148;-59
2023/05/19 00:15:10;;;;;;;19.63;12.02;;;;;;;11.88;89.90;100575.69;4848116;28;20074;-59
2023/05/19 00:17:42;;;;;;;14.80;10.73;;;;;;;12.02;89.64;100589.44;4847482;28;20050;-57
2023/05/19 00:20:15;;;;;;;17.70;10.30;;;;;;;12.17;89.40;100576.97;4835466;28;20748;-58
2023/05/19 00:22:45;;;;;;;15.63;9.32;;;;;;;12.26;89.00;100572.44;4839495;28;20492;-57
2023/05/19 00:25:19;;;;;;;18.30;10.07;;;;;;;12.38;88.50;100568.72;4847623;28;20050;-59
2023/05/19 00:27:51;;;;;;;13.80;9.77;;;;;;;12.60;89.15;100565.66;4854813;28;20053;-57
2023/05/19 00:30:26;;;;;;;17.92;9.48;;;;;;;12.80;88.55;100563.50;4844961;28;20070;-57
2023/05/19 00:32:57;;;;;;;17.60;10.73;;;;;;;12.97;88.69;100563.16;4854421;28;20053;-59
2023/05/19 00:35:27;;;;;;;15.65;10.25;;;;;;;13.12;87.72;100559.34;4839143;28;20050;-57
2023/05/19 00:37:58;;;;;;;16.42;11.63;;;;;;;13.28;88.27;100560.75;4839527;28;20053;-57
2023/05/19 00:40:31;;;;;;;16.73;11.55;;;;;;;13.43;87.82;100556.03;4839123;28;20050;-57
2023/05/19 00:43:04;;;;;;;18.70;10.80;;;;;;;13.37;86.99;100534.28;4839035;28;20061;-59
2023/05/19 00:45:35;;;;;;;17.33;9.90;;;;;;;13.84;87.55;100556.81;4829204;28;20046;-58
2023/05/19 00:48:06;;;;;;;15.07;11.18;;;;;;;14.08;87.54;100558.81;4839424;28;20140;-59
2023/05/19 00:50:37;;;;;;;15.82;11.55;;;;;;;14.23;87.02;100553.16;4839406;28;20539;-58
2023/05/19 00:53:11;;;;;;;16.25;8.90;;;;;;;14.39;85.83;100558.00;4839628;28;20046;-59
2023/05/19 00:55:43;;;;;;;16.08;9.68;;;;;;;14.33;85.84;100534.50;4836218;28;20053;-57
2023/05/19 00:58:19;;;;;;;15.52;9.43;;;;;;;14.54;85.15;100562.84;4825831;28;20056;-58
2023/05/19 01:00:49;;;;;;;18.43;9.37;;;;;;;14.59;85.50;100554.84;4835757;28;20057;-58
2023/05/19 01:03:20;;;;;;;17.00;10.10;;;;;;;14.63;84.31;100554.72;4834633;28;20281;-59
2023/05/19 01:05:52;;;;;;;18.43;9.80;;;;;;;14.67;83.80;100553.69;4843810;28;20285;-58
2023/05/19 01:08:23;;;;;;;14.80;9.53;;;;;;;14.72;83.07;100550.09;4847977;28;20282;-58
2023/05/19 01:10:54;;;;;;;15.87;9.47;;;;;;;14.83;84.18;100558.53;4849336;28;20301;-59
2023/05/19 01:13:29;;;;;;;18.60;8.23;;;;;;;14.99;84.45;100549.28;4845979;28;20296;-57
2023/05/19 01:16:05;;;;;;;15.20;8.97;;;;;;;15.14;83.53;100560.25;4853885;28;20364;-60
2023/05/19 01:18:45;;;;;;;15.80;8.70;;;;;;;15.09;83.14;100549.88;4834205;28;20319;-56
2023/05/19 01:21:57;;;;;;;17.17;7.97;;;;;;;15.18;81.17;100548.72;4828599;28;20296;-59
2023/05/19 01:24:46;;;;;;;16.33;8.43;;;;;;;15.18;81.25;100548.72;4834016;28;20107;-59
2023/05/19 01:27:42;;;;;;;17.45;8.40;;;;;;;15.46;81.38;100544.31;4843541;28;20371;-59
2023/05/19 01:30:34;;;;;;;19.83;9.40;;;;;;;15.43;80.38;100539.16;4842168;28;20728;-58
2023/05/19 01:33:08;;;;;;;14.63;8.63;;;;;;;15.46;81.92;100528.50;4833129;28;20288;-58
2023/05/19 01:35:42;;;;;;;17.87;9.23;;;;;;;15.56;79.84;100538.75;4853579;28;20285;-60
2023/05/19 01:38:18;;;;;;;17.33;9.10;;;;;;;15.62;80.15;100543.81;4850738;28;20294;-60
2023/05/19 01:40:54;;;;;;;13.60;7.67;;;;;;;15.28;80.54;100465.94;4853125;28;20343;-60
2023/05/19 01:43:26;;;;;;;13.47;7.03;;;;;;;15.85;79.07;100532.53;4844362;28;20338;-56
2023/05/19 01:46:03;;;;;;;13.10;6.60;;;;;;;15.94;78.08;100530.44;4854186;28;20281;-58
2023/05/19 01:48:37;;;;;;;17.50;7.80;;;;;;;15.93;76.87;100534.00;4848872;28;20333;-58
2023/05/19 01:51:07;;;;;;;12.87;6.27;;;;;;;16.03;77.37;100533.69;4845893;28;20369;-59
2023/05/19 01:53:38;;;;;;;13.90;5.60;;;;;;;16.06;76.64;100533.59;4841173;28;20320;-59
2023/05/19 01:56:09;;;;;;;8.83;4.90;;;;;;;16.00;76.11;100507.44;4830507;28;20285;-61
2023/05/19 01:58:46;;;;;;;10.30;5.30;;;;;;;16.28;76.38;100520.50;4831414;28;20372;-59
2023/05/19 02:01:30;;;;;;;13.10;5.90;;;;;;;16.32;75.57;100520.31;4820230;28;20830;-58
2023/05/19 02:04:13;;;;;;;10.70;4.83;;;;;;;16.50;75.50;100524.09;4820688;28;20289;-61
2023/05/19 02:06:53;;;;;;;15.87;5.53;;;;;;;16.52;74.12;100516.09;4822746;28;20294;-60
2023/05/19 02:09:27;;;;;;;12.63;5.20;;;;;;;16.56;73.58;100529.13;4824386;28;20346;-60
2023/05/19 02:12:04;;;;;;;7.27;4.43;;;;;;;16.59;73.65;100533.44;4830091;28;20364;-61
2023/05/19 02:14:40;;;;;;;11.90;4.57;;;;;;;16.76;74.46;100524.91;4820904;28;20333;-60
2023/05/19 02:17:15;;;;;;;7.13;4.23;;;;;;;16.89;74.43;100514.75;4831774;28;20355;-59
2023/05/19 02:19:46;;;;;;;8.73;4.53;;;;;;;16.95;72.94;100514.53;4820707;28;20292;-61
2023/05/19 02:22:17;;;;;;;9.97;4.10;;;;;;;16.86;72.35;100520.16;4826412;28;20297;-60
2023/05/19 02:24:50;;;;;;;11.97;3.73;;;;;;;16.74;71.93;100519.66;4831331;28;20375;-60
2023/05/19 02:27:21;;;;;;;12.47;4.80;;;;;;;16.84;72.77;100522.00;4831393;28;20372;-60
2023/05/19 02:29:51;;;;;;;11.37;4.43;;;;;;;16.96;72.22;100518.88;4830500;28;20830;-58
2023/05/19 02:32:24;;;;;;;11.37;4.17;;;;;;;17.18;71.55;100508.34;4830776;28;20293;-60
2023/05/19 02:34:55;;;;;;;11.70;4.00;;;;;;;17.38;71.89;100507.53;4820760;28;20316;-60
2023/05/19 02:37:27;;;;;;;7.73;3.07;;;;;;;17.59;70.68;100505.78;4834775;28;20775;-59
2023/05/19 02:39:58;;;;;;;9.70;2.93;;;;;;;17.75;69.18;100506.03;4833004;28;20301;-59
2023/05/19 02:42:28;;;;;;;7.73;3.50;;;;;;;17.83;68.38;100496.88;4834244;28;20368;-60
2023/05/19 02:45:00;;;;;;;8.30;3.33;;;;;;;17.83;69.26;100498.66;4834370;28;20352;-60
2023/05/19 02:47:33;;;;;;;11.67;3.27;;;;;;;18.04;68.51;100496.88;4833350;28;20984;-61
2023/05/19 02:50:07;;;;;;;5.50;3.03;;;;;;;18.07;67.12;100494.97;4835072;28;20317;-59
2023/05/19 02:52:37;;;;;;;9.67;2.80;;;;;;;18.25;66.27;100500.38;4834493;28;20286;-59
2023/05/19 02:55:09;;;;;;;8.17;2.77;;;;;;;18.40;64.49;100504.13;4833145;28;20301;-60
2023/05/19 02:57:46;;;;;;;4.10;2.40;;;;;;;18.62;65.21;100503.97;4834427;28;20289;-60
2023/05/19 03:00:17;;;;;;;6.90;2.57;;;;;;;18.81;63.91;100493.44;4824864;28;20373;-59
2023/05/19 03:02:51;;;;;;;8.40;2.63;;;;;;;18.75;62.44;100458.38;4831366;28;20300;-60
2023/05/19 03:05:26;;;;;;;5.23;2.30;;;;;;;19.06;62.07;100498.44;4834612;28;20301;-61
2023/05/19 03:07:57;;;;;;;8.10;2.70;;;;;;;19.23;63.23;100495.81;4823747;28;20285;-59
2023/05/19 03:10:28;;;;;;;8.63;2.20;;;;;;;19.34;62.73;100488.19;4833380;28;20293;-60
2023/05/19 03:13:02;;;;;;;4.77;2.43;;;;;;;19.35;61.48;100489.94;4832844;28;20758;-60
2023/05/19 03:15:33;;;;;;;10.20;2.60;;;;;;;19.34;61.54;100472.31;4831765;28;20721;-60
2023/05/19 03:18:13;;;;;;;11.53;2.33;;;;;;;19.30;59.69;100449.56;4839388;28;20295;-60
2023/05/19 03:20:44;;;;;;;3.40;2.40;;;;;;;19.22;59.63;100464.97;4826747;28;20302;-61
2023/05/19 03:23:15;;;;;;;5.37;2.37;;;;;;;19.12;61.27;100466.34;4834925;28;20922;-60
2023/05/19 03:25:48;;;;;;;3.93;2.30;;;;;;;18.88;58.45;100458.66;4833993;28;20339;-60
2023/05/19 03:28:19;;;;;;;8.60;2.17;;;;;;;18.57;57.50;100447.75;4824804;28;20388;-60
2023/05/19 03:30:50;;;;;;;10.07;2.50;;;;;;;18.61;58.84;100458.13;4833883;28;20282;-60
2023/05/19 03:33:23;;;;;;;7.57;2.50;;;;;;;18.58;58.86;100457.44;4841756;28;20307;-59
2023/05/19 03:35:54;;;;;;;6.43;2.93;;;;;;;18.73;57.79;100460.19;4824921;28;20364;-60
2023/05/19 03:38:25;;;;;;;9.33;2.93;;;;;;;18.94;58.10;100453.06;4831452;28;20319;-59
2023/05/19 03:40:56;;;;;;;8.27;2.60;;;;;;;19.29;58.94;100458.41;4834608;28;20317;-59
2023/05/19 03:43:29;;;;;;;10.37;3.00;;;;;;;19.59;59.89;100455.16;4833206;28;20282;-60
2023/05/19 03:46:00;;;;;;;13.27;3.00;;;;;;;19.93;59.97;100443.72;4831621;28;20289;-59
2023/05/19 03:48:35;;;;;;;8.53;2.13;;;;;;;20.29;58.98;100449.81;4832909;28;20508;-60
2023/05/19 03:51:07;;;;;;;10.13;3.70;;;;;;;20.36;56.01;100453.84;4823446;28;20296;-60
2023/05/19 03:53:40;;;;;;;6.27;2.30;;;;;;;20.36;56.01;100448.53;4832050;28;20289;-60
2023/05/19 03:56:12;;;;;;;9.77;2.50;;;;;;;20.34;55.22;100448.63;4833453;28;20362;-60
2023/05/19 03:58:43;;;;;;;8.00;2.70;;;;;;;20.05;55.86;100431.63;4831967;28;21060;-60
2023/05/19 04:01:17;;;;;;;6.23;2.73;;;;;;;19.97;55.94;100439.13;4834911;28;20330;-59
2023/05/19 04:03:49;;;;;;;10.17;2.30;;;;;;;19.85;54.18;100439.78;4831853;28;20348;-60
2023/05/19 04:06:20;;;;;;;2.60;2.10;;;;;;;19.72;53.38;100440.41;4832830;28;20285;-59
2023/05/19 04:08:51;;;;;;;3.70;2.47;;;;;;;19.89;54.70;100438.66;4831563;28;20293;-59
2023/05/19 04:11:21;;;;;;;6.97;2.40;;;;;;;20.14;56.12;100431.13;4832765;28;20285;-60
2023/05/19 04:13:52;;;;;;;5.40;2.40;;;;;;;20.42;56.06;100429.66;4831463;28;20880;-58
2023/05/19 04:16:25;;;;;;;4.33;1.80;;;;;;;20.55;54.16;100436.03;4829402;28;20290;-58
2023/05/19 04:18:57;;;;;;;3.27;1.67;;;;;;;20.47;53.97;100433.75;4833578;28;20394;-59
2023/05/19 04:21:28;;;;;;;3.50;2.27;;;;;;;20.42;54.14;100403.09;4833196;28;20608;-60
2023/05/19 04:24:05;;;;;;;6.23;2.07;;;;;;;20.58;54.01;100438.50;4830729;28;20377;-60
2023/05/19 04:26:37;;;;;;;6.90;2.07;;;;;;;20.54;54.72;100428.94;4821907;28;21794;-59
2023/05/19 04:29:16;;;;;;;4.57;2.43;;;;;;;20.56;53.48;100427.09;4833397;28;20292;-59
2023/05/19 04:31:47;;;;;;;6.03;2.43;;;;;;;20.49;53.88;100407.09;4822629;28;20367;-60
2023/05/19 04:34:20;;;;;;;2.97;2.10;;;;;;;20.67;53.30;100430.03;4831530;28;20373;-61
2023/05/19 04:36:51;;;;;;;8.50;2.40;;;;;;;20.70;53.87;100428.16;4832657;28;20356;-61
2023/05/19 04:39:22;;;;;;;4.50;2.13;;;;;;;20.68;54.75;100429.06;4832613;28;20356;-60
2023/05/19 04:41:54;;;;;;;3.90;2.13;;;;;;;20.60;54.68;100428.66;4837450;28;20294;-60
2023/05/19 04:44:25;;;;;;;6.70;3.03;;;;;;;20.46;54.55;100431.19;4832258;28;20278;-61
2023/05/19 04:46:56;;;;;;;4.93;2.50;;;;;;;20.30;54.92;100393.16;4833336;28;20292;-60
2023/05/19 04:49:28;;;;;;;7.53;2.47;;;;;;;20.38;54.67;100422.78;4832734;28;20286;-59
2023/05/19 04:51:59;;;;;;;11.37;2.17;;;;;;;20.42;54.25;100432.31;4831728;28;20325;-60
2023/05/19 04:54:33;;;;;;;2.87;1.87;;;;;;;20.23;53.98;100441.25;4832034;28;20304;-60
2023/05/19 04:57:04;;;;;;;8.87;1.90;;;;;;;19.97;54.29;100433.84;4825541;28;20298;-61
2023/05/19 04:59:35;;;;;;;3.63;1.80;;;;;;;19.85;53.51;100437.97;4830953;28;20334;-59
2023/05/19 05:02:05;;;;;;;3.80;1.70;;;;;;;19.49;52.63;100443.31;4831119;28;20285;-59
2023/05/19 05:04:41;;;;;;;5.87;2.10;;;;;;;18.93;53.24;100446.06;4832414;28;20285;-60
2023/05/19 05:07:12;;;;;;;5.30;2.00;;;;;;;18.64;54.47;100449.19;4832237;28;20289;-60
2023/05/19 05:09:43;;;;;;;10.53;2.30;;;;;;;18.45;55.65;100447.41;4829318;28;20390;-59
2023/05/19 05:12:22;;;;;;;7.77;2.37;;;;;;;18.13;55.88;100437.44;4836856;28;20338;-60
2023/05/19 05:14:54;;;;;;;6.07;2.30;;;;;;;17.84;56.01;100436.94;4828400;28;20295;-61
2023/05/19 05:17:28;;;;;;;7.73;2.57;;;;;;;17.45;57.11;100403.34;4832171;28;21202;-59
2023/05/19 05:20:04;;;;;;;9.47;2.77;;;;;;;17.31;58.06;100409.22;4831788;28;21059;-59
2023/05/19 05:22:37;;;;;;;5.80;2.60;;;;;;;17.38;57.56;100449.44;4821291;28;20313;-61
2023/05/19 05:25:09;;;;;;;10.97;2.87;;;;;;;17.17;57.32;100446.75;4831889;28;20340;-60
2023/05/19 05:27:41;;;;;;;6.50;2.70;;;;;;;17.02;58.23;100431.53;4832281;28;20376;-59
2023/05/19 05:30:12;;;;;;;10.40;3.43;;;;;;;16.94;58.85;100429.19;4830940;28;20913;-59
2023/05/19 05:32:44;;;;;;;12.50;3.20;;;;;;;16.92;59.22;100440.72;4827548;28;20354;-59
2023/05/19 05:35:17;;;;;;;6.60;2.30;;;;;;;16.90;58.92;100443.44;4831988;28;20284;-59
2023/05/19 05:37:47;;;;;;;4.63;2.20;;;;;;;16.88;57.68;100449.72;4830955;28;20332;-60
2023/05/19 05:40:23;;;;;;;8.23;2.70;;;;;;;16.80;58.21;100450.88;4830102;28;20300;-59
2023/05/19 05:42:54;;;;;;;5.27;2.40;;;;;;;16.84;57.64;100448.94;4824575;28;20349;-59
2023/05/19 05:45:27;;;;;;;5.60;2.43;;;;;;;17.01;56.99;100453.56;4832260;28;20321;-60
2023/05/19 05:47:58;;;;;;;5.20;1.90;;;;;;;17.37;55.50;100447.69;4830504;28;20380;-60
2023/05/19 05:50:31;;;;;;;12.03;2.17;;;;;;;17.76;54.64;100449.59;4830734;28;20349;-59
2023/05/19 05:53:06;;;;;;;8.20;2.77;;;;;;;18.10;55.51;100449.88;4832289;28;20356;-60
2023/05/19 05:55:38;;;;;;;6.20;2.50;;;;;;;18.29;54.36;100438.44;4821460;28;20903;-61
2023/05/19 05:58:10;;;;;;;4.07;2.40;;;;;;;18.08;54.94;100442.94;4830522;28;20779;-59
2023/05/19 06:00:44;;;;;;;5.53;2.27;;;;;;;17.74;55.22;100403.88;4830889;28;20311;-60
2023/05/19 06:03:15;;;;;;;9.57;2.47;;;;;;;17.98;55.71;100445.13;4821827;28;20324;-60
2023/05/19 06:05:48;;;;;;;7.60;2.27;;;;;;;17.60;55.20;100444.97;4831037;28;20273;-60
2023/05/19 06:08:18;;;;;;;7.20;2.07;;;;;;;17.25;55.92;100442.03;4830230;28;20304;-60
2023/05/19 06:10:49;;;;;;;6.67;2.27;;;;;;;16.89;56.77;100430.31;4831588;28;20366;-59
2023/05/19 06:13:22;;;;;;;4.70;2.10;;;;;;;16.71;57.66;100448.53;4834151;28;20703;-60
2023/05/19 06:15:53;;;;;;;10.53;2.27;;;;;;;16.57;57.52;100446.44;4833720;28;20835;-59
2023/05/19 06:18:24;;;;;;;5.87;2.60;;;;;;;15.80;58.31;100343.00;4838418;28;20279;-59
2023/05/19 06:20:56;;;;;;;5.67;2.30;;;;;;;16.32;58.50;100441.22;4837409;28;20281;-58
2023/05/19 06:23:28;;;;;;;7.10;2.97;;;;;;;16.32;59.73;100445.63;4837887;28;20778;-60
2023/05/19 06:25:58;;;;;;;5.70;2.53;;;;;;;16.39;59.33;100444.50;4837709;28;20819;-60
2023/05/19 06:28:35;;;;;;;6.40;2.80;;;;;;;16.38;59.19;100446.28;4837104;28;20312;-59
2023/05/19 06:31:05;;;;;;;12.50;2.97;;;;;;;16.30;59.57;100443.06;4825882;28;20281;-59
2023/05/19 06:33:39;;;;;;;7.50;2.20;;;;;;;16.33;60.06;100442.09;4838230;28;20272;-58
2023/05/19 06:36:12;;;;;;;13.33;3.13;;;;;;;16.48;60.27;100446.78;4837341;28;20368;-59
2023/05/19 06:38:43;;;;;;;18.07;2.80;;;;;;;16.52;60.27;100448.38;4833446;28;20818;-59
2023/05/19 06:41:14;;;;;;;8.33;3.47;;;;;;;16.44;59.05;100454.88;4842482;28;20946;-59
2023/05/19 06:43:44;;;;;;;9.23;2.40;;;;;;;16.31;59.60;100452.69;4839067;28;20719;-58
2023/05/19 06:46:16;;;;;;;6.77;2.60;;;;;;;16.28;60.21;100455.44;4837072;28;20518;-58
2023/05/19 06:48:50;;;;;;;5.57;2.70;;;;;;;16.14;60.15;100447.19;4837552;28;20281;-58
2023/05/19 06:51:22;;;;;;;7.37;2.57;;;;;;;16.01;59.99;100440.63;4837139;28;20296;-59
2023/05/19 06:53:57;;;;;;;12.67;2.97;;;;;;;15.80;60.40;100443.13;4832781;28;20305;-58
2023/05/19 06:56:28;;;;;;;5.93;2.50;;;;;;;15.62;61.42;100439.31;4821224;28;20360;-58
2023/05/19 06:59:02;;;;;;;6.60;2.90;;;;;;;15.58;62.16;100457.91;4837599;28;20404;-59
2023/05/19 07:01:35;;;;;;;13.47;2.67;;;;;;;15.52;62.47;100458.97;4827643;28;20343;-59
2023/05/19 07:04:06;;;;;;;7.90;2.53;;;;;;;15.39;62.75;100463.78;4836525;28;20281;-59
2023/05/19 07:06:39;;;;;;;5.60;2.20;;;;;;;15.27;62.72;100465.03;4837460;28;20285;-58
2023/05/19 07:09:09;;;;;;;6.33;2.60;;;;;;;15.18;63.16;100464.50;4837361;28;20297;-59
2023/05/19 07:11:40;;;;;;;4.17;2.40;;;;;;;15.12;63.38;100454.16;4837654;28;20308;-58
2023/05/19 07:14:14;;;;;;;10.50;2.67;;;;;;;15.09;63.68;100455.97;4836996;28;20309;-59
2023/05/19 07:16:45;;;;;;;9.07;2.27;;;;;;;15.10;63.40;100465.59;4827632;28;20360;-57
2023/05/19 07:19:18;;;;;;;12.10;2.80;;;;;;;15.05;63.34;100458.75;4837899;28;20582;-58
2023/05/19 07:21:50;;;;;;;10.17;2.57;;;;;;;15.03;63.71;100453.53;4836855;28;20421;-59
2023/05/19 07:24:21;;;;;;;5.67;2.17;;;;;;;14.98;63.48;100463.34;4835084;28;20752;-59
2023/05/19 07:26:52;;;;;;;4.47;2.20;;;;;;;14.85;62.75;100454.09;4833447;28;20285;-58
2023/05/19 07:29:23;;;;;;;6.90;2.33;;;;;;;14.80;63.03;100464.78;4831939;28;20675;-59
2023/05/19 07:31:56;;;;;;;6.00;2.30;;;;;;;14.70;62.75;100467.72;4837630;28;21245;-59
2023/05/19 07:34:28;;;;;;;8.83;2.50;;;;;;;14.66;62.28;100467.81;4833160;28;20756;-58
2023/05/19 07:37:01;;;;;;;4.73;2.30;;;;;;;14.96;62.19;100475.69;4833965;28;20281;-58
2023/05/19 07:39:31;;;;;;;5.47;2.40;;;;;;;15.23;62.00;100467.84;4833762;28;20285;-58
2023/05/19 07:42:02;;;;;;;4.03;2.50;;;;;;;15.40;60.61;100470.78;4832761;28;20632;-59
2023/05/19 07:44:33;;;;;;;5.90;2.20;;;;;;;15.56;60.60;100465.00;4830315;28;20847;-59
2023/05/19 07:47:08;;;;;;;7.97;2.57;;;;;;;15.70;60.37;100462.78;4834629;28;20309;-59
2023/05/19 07:49:42;;;;;;;12.17;2.87;;;;;;;15.82;59.82;100469.41;4834067;28;20290;-59
2023/05/19 07:52:14;;;;;;;7.40;2.83;;;;;;;15.81;59.75;100471.19;4831744;28;20461;-59
2023/05/19 07:54:45;;;;;;;8.80;3.27;;;;;;;15.83;59.86;100474.63;4833274;28;20709;-58
2023/05/19 07:57:16;;;;;;;17.00;3.47;;;;;;;15.83;59.93;100472.00;4833541;28;20277;-58
2023/05/19 07:59:46;;;;;;;9.03;2.57;;;;;;;15.89;60.02;100474.41;4835433;28;20949;-58
2023/05/19 08:02:17;;;;;;;4.73;2.70;;;;;;;15.87;59.08;100473.59;4836001;28;20332;-59
2023/05/19 08:04:48;;;;;;;4.93;2.30;;;;;;;15.79;58.28;100462.47;4833525;28;20388;-58
2023/05/19 08:07:23;;;;;;;6.00;2.20;;;;;;;15.88;58.73;100477.97;4833242;28;20376;-58
2023/05/19 08:09:54;;;;;;;9.33;2.90;;;;;;;15.89;58.06;100474.41;4822677;28;20294;-58
2023/05/19 08:12:25;;;;;;;3.90;2.40;;;;;;;15.85;57.81;100478.09;4832783;28;20290;-59
2023/05/19 08:14:56;;;;;;;6.33;2.60;;;;;;;15.85;58.02;100472.81;4833579;28;20803;-58
2023/05/19 08:17:32;;;;;;;7.07;2.20;;;;;;;15.87;57.82;100470.09;4833062;28;20320;-59
2023/05/19 08:20:05;;;;;;;11.43;2.57;;;;;;;15.91;58.10;100471.72;4831015;28;20362;-58
2023/05/19 08:22:38;;;;;;;8.87;3.07;;;;;;;15.92;58.21;100478.72;4833224;28;20313;-58
2023/05/19 08:25:12;;;;;;;8.27;2.73;;;;;;;15.94;59.32;100476.88;4832306;28;20612;-59
2023/05/19 08:27:43;;;;;;;7.70;2.87;;;;;;;16.01;59.45;100480.19;4830404;28;20346;-58
2023/05/19 08:30:19;;;;;;;10.97;4.77;;;;;;;15.85;59.69;100475.44;4831724;28;20274;-58
2023/05/19 08:32:50;;;;;;;6.97;2.93;;;;;;;15.50;59.01;100421.28;4832542;28;20373;-58
2023/05/19 08:35:20;;;;;;;6.80;3.17;;;;;;;15.84;58.86;100486.03;4831283;28;20347;-58
2023/05/19 08:37:53;;;;;;;6.27;2.90;;;;;;;15.78;59.43;100487.09;4831394;28;20317;-58
2023/05/19 08:40:30;;;;;;;5.83;2.93;;;;;;;15.83;59.91;100495.72;4826371;28;20694;-59
2023/05/19 08:43:07;;;;;;;6.83;3.00;;;;;;;15.79;59.78;100496.72;4833033;28;20289;-58
2023/05/19 08:45:38;;;;;;;6.20;2.60;;;;;;;15.79;59.70;100498.50;4822228;28;20319;-59
2023/05/19 08:48:11;;;;;;;5.57;2.57;;;;;;;15.67;59.63;100505.00;4831734;28;20592;-59
2023/05/19 08:50:48;;;;;;;4.00;2.47;;;;;;;15.65;59.84;100512.09;4839804;28;20364;-59
2023/05/19 08:53:24;;;;;;;9.10;2.70;;;;;;;15.61;59.44;100513.13;4821573;28;21205;-59
2023/05/19 08:56:10;;;;;;;4.37;2.83;;;;;;;15.48;59.68;100523.22;4822107;28;20375;-59
2023/05/19 08:58:42;;;;;;;7.13;3.10;;;;;;;15.32;59.84;100514.91;4821970;28;20320;-58
2023/05/19 09:01:16;;;;;;;14.97;3.57;;;;;;;15.20;60.29;100526.72;4829257;28;20275;-58
2023/05/19 09:03:48;;;;;;;26.00;12.63;;;;;;;14.79;60.45;100477.97;4830437;28;20290;-58
2023/05/19 09:06:20;;;;;;;122.83;45.17;;;;;;;14.95;60.30;100537.13;4829776;28;20692;-58
2023/05/19 09:08:52;;;;;;;22.63;9.27;;;;;;;14.85;60.83;100546.19;4831252;28;20698;-58
2023/05/19 09:11:22;;;;;;;6.03;3.60;;;;;;;14.66;61.23;100549.34;4831306;28;20521;-58
2023/05/19 09:13:53;;;;;;;7.80;2.83;;;;;;;14.52;61.99;100554.09;4838783;28;20287;-58
2023/05/19 09:16:24;;;;;;;5.13;2.23;;;;;;;14.00;63.63;100560.75;4835654;28;21922;-58
2023/05/19 09:18:59;;;;;;;8.20;2.67;;;;;;;13.08;65.98;100562.91;4830908;28;20292;-58
2023/05/19 09:21:40;;;;;;;10.33;2.77;;;;;;;12.48;67.99;100578.13;4820947;28;20292;-58
2023/05/19 09:24:14;;;;;;;7.23;2.83;;;;;;;12.15;70.17;100578.75;4829941;28;20280;-58
2023/05/19 09:26:47;;;;;;;11.82;2.90;;;;;;;11.96;70.52;100581.69;4831592;28;20290;-58
2023/05/19 09:29:19;;;;;;;9.05;2.65;;;;;;;11.52;71.22;100551.81;4830164;28;20101;-58
2023/05/19 09:31:50;;;;;;;9.50;2.88;;;;;;;11.39;72.46;100598.25;4831708;28;20471;-59
2023/05/19 09:34:31;;;;;;;5.40;3.25;;;;;;;11.10;73.33;100580.34;4831779;28;20081;-58
2023/05/19 09:37:04;;;;;;;8.80;3.08;;;;;;;11.05;74.25;100603.06;4821381;28;20063;-58
2023/05/19 09:39:40;;;;;;;7.30;3.85;;;;;;;10.98;75.16;100617.09;4830889;28;20104;-58
2023/05/19 09:42:10;;;;;;;6.95;3.72;;;;;;;10.92;75.42;100623.28;4831351;28;20109;-58
2023/05/19 09:44:43;;;;;;;11.07;3.72;;;;;;;10.80;75.80;100608.59;4827527;28;20062;-58
2023/05/19 09:47:16;;;;;;;9.15;3.53;;;;;;;10.76;76.28;100621.75;4833140;28;20050;-58
2023/05/19 09:49:51;;;;;;;6.50;3.35;;;;;;;10.59;76.76;100621.94;4833892;28;20068;-58
2023/05/19 09:52:22;;;;;;;5.82;3.72;;;;;;;10.39;77.66;100608.22;4831165;28;20089;-57
2023/05/19 09:54:55;;;;;;;10.02;4.38;;;;;;;10.33;77.78;100630.91;4829375;28;20058;-57
2023/05/19 09:57:34;;;;;;;8.80;3.35;;;;;;;10.19;78.74;100635.34;4831340;28;20062;-58
2023/05/19 10:00:16;;;;;;;6.40;2.80;;;;;;;9.99;79.69;100626.81;4835170;28;20066;-58
2023/05/19 10:02:49;;;;;;;6.25;3.45;;;;;;;9.84;80.61;100641.72;4821545;28;20574;-57
2023/05/19 10:05:20;;;;;;;5.18;3.05;;;;;;;9.74;81.34;100642.66;4830200;28;20053;-57
2023/05/19 10:07:53;;;;;;;6.82;3.72;;;;;;;9.60;82.21;100649.69;4831016;28;20062;-58
2023/05/19 10:10:27;;;;;;;7.53;3.90;;;;;;;9.41;83.26;100648.94;4823943;28;20079;-58
2023/05/19 10:12:59;;;;;;;6.00;3.85;;;;;;;9.30;84.15;100646.38;4830243;28;20120;-58
2023/05/19 10:15:31;;;;;;;7.80;3.90;;;;;;;9.17;85.04;100649.94;4831531;28;20171;-58
2023/05/19 10:18:15;;;;;;;4.95;3.47;;;;;;;8.94;86.11;100653.50;4819625;28;20054;-58
2023/05/19 10:20:47;;;;;;;3.97;3.13;;;;;;;8.84;86.82;100662.22;4820577;28;20054;-57
2023/05/19 10:23:21;;;;;;;7.35;3.60;;;;;;;8.68;87.49;100668.34;4831097;28;20081;-58
2023/05/19 10:25:58;;;;;;;6.00;2.88;;;;;;;8.55;88.18;100676.16;4830862;28;20054;-57
2023/05/19 10:28:36;;;;;;;6.25;3.05;;;;;;;8.56;88.76;100677.91;4819631;28;20050;-58
2023/05/19 10:31:10;;;;;;;4.70;3.15;;;;;;;8.43;89.02;100665.75;4820826;28;20054;-58
2023/05/19 10:33:57;;;;;;;4.35;3.15;;;;;;;8.36;89.29;100684.81;4831581;28;20152;-58
2023/05/19 10:36:45;;;;;;;6.90;3.10;;;;;;;8.28;90.13;100697.00;4818364;28;20058;-58
2023/05/19 10:39:20;;;;;;;7.97;3.92;;;;;;;8.19;90.58;100693.53;4820350;28;21221;-57
2023/05/19 10:42:05;;;;;;;7.85;3.30;;;;;;;8.17;91.13;100700.47;4830554;28;20086;-57
2023/05/19 10:44:59;;;;;;;7.93;3.83;;;;;;;8.04;91.03;100701.34;4826559;28;20542;-56
2023/05/19 10:47:33;;;;;;;10.80;3.80;;;;;;;7.81;92.04;100690.00;4819033;28;20070;-57
2023/05/19 10:50:08;;;;;;;8.27;3.35;;;;;;;7.86;92.92;100709.97;4823513;28;20771;-56
2023/05/19 10:52:40;;;;;;;6.10;3.17;;;;;;;7.57;93.05;100673.50;4829529;28;20133;-57
2023/05/19 10:55:14;;;;;;;4.80;3.05;;;;;;;7.77;93.18;100709.97;4829249;28;20097;-57
2023/05/19 10:57:57;;;;;;;8.07;3.45;;;;;;;7.73;93.39;100709.06;4820499;28;20077;-57
2023/05/19 11:00:32;;;;;;;6.93;3.42;;;;;;;7.59;93.80;100710.78;4819677;28;20046;-57
2023/05/19 11:03:14;;;;;;;7.25;3.40;;;;;;;7.63;93.93;100717.72;4832871;28;21015;-57
2023/05/19 11:05:53;;;;;;;8.40;3.90;;;;;;;7.41;93.74;100700.31;4813386;28;20100;-57
2023/05/19 11:08:33;;;;;;;5.88;3.30;;;;;;;7.40;94.30;100720.25;4826354;28;21392;-57
2023/05/19 11:11:14;;;;;;;5.07;3.63;;;;;;;7.28;95.36;100715.84;4824570;28;20047;-57
2023/05/19 11:13:49;;;;;;;6.20;3.95;;;;;;;7.11;96.22;100712.31;4824188;28;20057;-57
2023/05/19 11:16:35;;;;;;;10.82;4.68;;;;;;;7.01;97.25;100710.53;4834256;28;20082;-56
2023/05/19 11:19:07;;;;;;;9.13;4.20;;;;;;;6.72;98.00;100697.38;4826412;28;20064;-57
2023/05/19 11:21:53;;;;;;;10.07;4.72;;;;;;;6.44;98.19;100659.13;4832815;28;20054;-57
2023/05/19 11:24:38;;;;;;;8.77;4.85;;;;;;;6.69;99.15;100725.06;4825510;28;20071;-56
2023/05/19 11:27:23;;;;;;;9.20;4.75;;;;;;;6.58;100.00;100738.81;4823664;28;20456;-58
2023/05/19 11:30:13;;;;;;;7.00;4.63;;;;;;;6.30;100.00;100704.88;4822465;28;20485;-57
2023/05/19 11:32:49;;;;;;;7.45;4.60;;;;;;;6.42;100.00;100748.22;4818652;28;20410;-58
2023/05/19 11:35:23;;;;;;;12.43;4.90;;;;;;;6.35;100.00;100744.69;4828999;28;20101;-59
2023/05/19 11:37:57;;;;;;;11.45;4.85;;;;;;;6.30;100.00;100736.00;4824111;28;21025;-57
2023/05/19 11:40:29;;;;;;;13.43;5.70;;;;;;;6.35;100.00;100760.28;4832592;28;20065;-57
2023/05/19 11:43:03;;;;;;;10.48;4.95;;;;;;;6.26;100.00;100755.00;4834102;28;20068;-58
2023/05/19 11:45:35;;;;;;;12.68;5.72;;;;;;;6.27;100.00;100764.53;4827718;28;20448;-58
2023/05/19 11:48:09;;;;;;;13.82;5.80;;;;;;;6.07;100.00;100747.91;4834427;28;20434;-58
2023/05/19 11:50:42;;;;;;;8.48;3.65;;;;;;;6.17;100.00;100763.56;4831345;28;20042;-57
2023/05/19 11:53:16;;;;;;;13.40;6.00;;;;;;;5.93;100.00;100738.22;4822818;28;20059;-57